Startpagina
METAR-TAF:

METAR-TAF

Vliegvelden :

Liege Airport

Luik, België

breedte: 50-39N, lengte: 005-27E, hoogte: 186 m

Actueel weer

Dit bericht is 22 minuten geleden gemaakt, om 03:20 UTC
Wind 3 kt uit het noorden
Temperatuur -1°C
Vochtigheid 93%
Druk 1021 hPa
Zicht 10 km of meer
geen wolken onder 1500 m en geen cumulonimbus

METAR: EBLG 230320Z 35003KT CAVOK M01/M02 Q1021 TEMPO 5000 BR

Tijdstip: 05:42 (03:42 UTC)

Verwachting

Dit bericht is 4 uur en het 31 minuten geleden gemaakt, om 23:11 UTC
Verwachting geldig van 23 om 00 UTC tot 24 om 06 UTC
Wind 4 kt uit het noorden
Zicht 10 km of meer
Weinig wolken op 4000 ft
Kans 30% :
Tijdelijke
van 23 om 05 UTC tot 23 om 08 UTC
Gebroken wolken op 300 ft
Tijdelijke
van 23 om 23 UTC tot 24 om 03 UTC
Zicht: 4500 m
Gebroken wolken op 1400 ft
regen, regenbuien,

TAF: EBLG 222311Z 2300/2406 01004KT 9999 FEW040 PROB30 TEMPO 2305/2308 BKN003 TEMPO 2323/2403 4500 RA SHRA BKN014

Waarnemingen en weersverwachtingen van meer dan 4000 vliegvelden (METAR en TAF).

De beschikbare stations zijn de gele en rode punten op de kaart.

Ga met uw muis naar het station om de naam te zien.

Klik dan om waarnemingen en weersverwachtingen te zien.

kaart wijzigen: klik op de groene knoppen met een zwart kruis om in te zoomen, op de groene knop met een streepje om uit te zoomen of op de groene pijlen voor aangrenzende kaarten.


METAR-TAF: